createdAt,value
2023-05-15T00:00:52.864Z,13.96
2023-05-15T00:01:52.806Z,13.94
2023-05-15T00:02:52.973Z,13.91
2023-05-15T00:03:52.845Z,13.91
2023-05-15T00:04:52.822Z,13.90
2023-05-15T00:05:52.764Z,13.84
2023-05-15T00:06:52.750Z,13.83
2023-05-15T00:07:52.730Z,13.76
2023-05-15T00:08:52.746Z,13.73
2023-05-15T00:09:52.702Z,13.72
2023-05-15T00:11:00.730Z,13.72
2023-05-15T00:11:53.689Z,13.71
2023-05-15T00:12:52.705Z,13.71
2023-05-15T00:13:52.676Z,13.69
2023-05-15T00:14:52.682Z,13.71
2023-05-15T00:15:52.674Z,13.73
2023-05-15T00:16:52.684Z,13.72
2023-05-15T00:17:52.821Z,13.73
2023-05-15T00:18:52.689Z,13.71
2023-05-15T00:19:52.580Z,13.71
2023-05-15T00:20:52.574Z,13.68
2023-05-15T00:21:52.564Z,13.66
2023-05-15T00:22:52.560Z,13.68
2023-05-15T00:23:52.549Z,13.66
2023-05-15T00:24:52.592Z,13.66
2023-05-15T00:25:52.522Z,13.63
2023-05-15T00:26:52.510Z,13.63
2023-05-15T00:27:52.496Z,13.62
2023-05-15T00:28:52.469Z,13.61
2023-05-15T00:29:52.461Z,13.54
2023-05-15T00:30:52.526Z,13.59
2023-05-15T00:31:52.481Z,13.54
2023-05-15T00:32:52.471Z,13.53
2023-05-15T00:33:52.442Z,13.50
2023-05-15T00:34:52.409Z,13.48
2023-05-15T00:35:52.384Z,13.46
2023-05-15T00:36:52.375Z,13.43
2023-05-15T00:37:52.349Z,13.43
2023-05-15T00:38:52.339Z,13.41
2023-05-15T00:39:52.327Z,13.43
2023-05-15T00:40:52.324Z,13.48
2023-05-15T00:41:52.307Z,13.55
2023-05-15T00:42:52.294Z,13.62
2023-05-15T00:43:52.317Z,13.65
2023-05-15T00:44:52.284Z,13.73
2023-05-15T00:45:52.266Z,13.80
2023-05-15T00:46:52.271Z,13.81
2023-05-15T00:47:52.255Z,13.81
2023-05-15T00:48:52.224Z,13.83
2023-05-15T00:49:52.203Z,13.81
2023-05-15T00:50:52.223Z,13.76
2023-05-15T00:51:52.184Z,13.71
2023-05-15T00:52:52.171Z,13.65
2023-05-15T00:53:52.266Z,13.65
2023-05-15T00:54:52.148Z,13.59
2023-05-15T00:55:52.134Z,13.54
2023-05-15T00:56:52.113Z,13.48
2023-05-15T00:57:52.104Z,13.46
2023-05-15T00:58:52.127Z,13.41
2023-05-15T00:59:52.082Z,13.39
2023-05-15T01:00:52.088Z,13.41
2023-05-15T01:01:52.053Z,13.38
2023-05-15T01:02:52.169Z,13.36
2023-05-15T01:03:52.041Z,13.32
2023-05-15T01:04:52.043Z,13.35
2023-05-15T01:05:52.025Z,13.32
2023-05-15T01:06:51.995Z,13.31
2023-05-15T01:07:52.017Z,13.31
2023-05-15T01:08:51.962Z,13.28
2023-05-15T01:09:51.938Z,13.28
2023-05-15T01:10:51.937Z,13.22
2023-05-15T01:11:51.910Z,13.24
2023-05-15T01:12:51.906Z,13.25
2023-05-15T01:13:51.885Z,13.24
2023-05-15T01:14:51.892Z,13.21
2023-05-15T01:15:51.882Z,13.16
2023-05-15T01:16:51.861Z,13.16
2023-05-15T01:17:51.874Z,13.13
2023-05-15T01:18:51.960Z,13.13
2023-05-15T01:19:51.886Z,13.14
2023-05-15T01:20:51.808Z,13.16
2023-05-15T01:21:51.788Z,13.14
2023-05-15T01:22:51.796Z,13.13
2023-05-15T01:23:51.757Z,13.14
2023-05-15T01:24:51.757Z,13.14
2023-05-15T01:25:51.747Z,13.14
2023-05-15T01:26:51.737Z,13.17
2023-05-15T01:27:51.715Z,13.14
2023-05-15T01:28:51.886Z,13.13
2023-05-15T01:29:51.809Z,13.10
2023-05-15T01:30:51.678Z,13.09
2023-05-15T01:31:51.702Z,13.06
2023-05-15T01:32:51.711Z,13.01
2023-05-15T01:33:51.625Z,12.99
2023-05-15T01:34:51.650Z,13.01
2023-05-15T01:35:51.632Z,12.99
2023-05-15T01:36:51.620Z,12.98
2023-05-15T01:37:51.573Z,12.92
2023-05-15T01:38:51.569Z,12.91
2023-05-15T01:39:51.553Z,12.92
2023-05-15T01:40:51.567Z,12.94
2023-05-15T01:41:51.555Z,12.95
2023-05-15T01:42:51.536Z,12.95
2023-05-15T01:43:51.497Z,12.95
2023-05-15T01:44:51.536Z,12.94
2023-05-15T01:45:51.506Z,12.94
2023-05-15T01:46:51.509Z,12.96
2023-05-15T01:47:51.465Z,12.94
2023-05-15T01:48:51.465Z,12.89
2023-05-15T01:49:51.406Z,12.85
2023-05-15T01:50:51.411Z,12.88
2023-05-15T01:51:51.411Z,12.87
2023-05-15T01:52:51.388Z,12.81
2023-05-15T01:53:51.383Z,12.80
2023-05-15T01:54:51.376Z,12.79
2023-05-15T01:55:51.343Z,12.77
2023-05-15T01:56:51.338Z,12.77
2023-05-15T01:57:51.310Z,12.76
2023-05-15T01:58:51.314Z,12.73
2023-05-15T01:59:51.316Z,12.74
2023-05-15T02:00:51.372Z,12.71
2023-05-15T02:01:51.365Z,12.73
2023-05-15T02:02:51.320Z,12.74
2023-05-15T02:03:51.420Z,12.76
2023-05-15T02:04:51.245Z,12.80
2023-05-15T02:05:51.208Z,12.84
2023-05-15T02:06:51.212Z,12.81
2023-05-15T02:07:51.187Z,12.76
2023-05-15T02:08:51.202Z,12.76
2023-05-15T02:09:51.189Z,12.73
2023-05-15T02:10:51.165Z,12.71
2023-05-15T02:11:51.155Z,12.70
2023-05-15T02:12:51.139Z,12.69
2023-05-15T02:13:51.138Z,12.67
2023-05-15T02:14:51.182Z,12.66
2023-05-15T02:15:51.184Z,12.63
2023-05-15T02:16:51.092Z,12.62
2023-05-15T02:17:51.195Z,12.63
2023-05-15T02:18:51.088Z,12.66
2023-05-15T02:19:51.059Z,12.69
2023-05-15T02:20:51.314Z,12.69
2023-05-15T02:21:51.046Z,12.67
2023-05-15T02:22:51.016Z,12.67
2023-05-15T02:23:50.985Z,12.62
2023-05-15T02:24:50.990Z,12.58
2023-05-15T02:25:50.956Z,12.54
2023-05-15T02:26:50.962Z,12.51
2023-05-15T02:27:50.932Z,12.51
2023-05-15T02:28:50.922Z,12.48
2023-05-15T02:29:50.923Z,12.46
2023-05-15T02:30:50.914Z,12.44
2023-05-15T02:31:50.937Z,12.43
2023-05-15T02:32:51.013Z,12.43
2023-05-15T02:33:50.878Z,12.44
2023-05-15T02:34:50.907Z,12.46
2023-05-15T02:35:50.837Z,12.46
2023-05-15T02:36:50.859Z,12.46
2023-05-15T02:37:50.811Z,12.46
2023-05-15T02:38:50.809Z,12.46
2023-05-15T02:39:50.787Z,12.46
2023-05-15T02:40:50.802Z,12.46
2023-05-15T02:41:50.757Z,12.46
2023-05-15T02:42:50.763Z,12.44
2023-05-15T02:43:50.738Z,12.43
2023-05-15T02:44:50.741Z,12.46
2023-05-15T02:45:50.992Z,12.51
2023-05-15T02:46:50.745Z,12.51
2023-05-15T02:47:50.753Z,12.52
2023-05-15T02:48:50.713Z,12.52
2023-05-15T02:49:50.674Z,12.51
2023-05-15T02:50:50.667Z,12.49
2023-05-15T02:51:50.640Z,12.51
2023-05-15T02:52:50.645Z,12.52
2023-05-15T02:53:50.610Z,12.56
2023-05-15T02:54:50.597Z,12.59
2023-05-15T02:55:50.574Z,12.61
2023-05-15T02:56:50.576Z,12.63
2023-05-15T02:57:50.559Z,12.66
2023-05-15T02:58:50.575Z,12.67
2023-05-15T02:59:50.549Z,12.67
2023-05-15T03:00:50.539Z,12.69
2023-05-15T03:01:50.493Z,12.67
2023-05-15T03:02:50.507Z,12.66
2023-05-15T03:03:50.508Z,12.66
2023-05-15T03:04:50.481Z,12.63
2023-05-15T03:05:50.438Z,12.63
2023-05-15T03:06:50.457Z,12.62
2023-05-15T03:07:50.449Z,12.63
2023-05-15T03:08:50.441Z,12.66
2023-05-15T03:09:50.440Z,12.67
2023-05-15T03:10:50.417Z,12.69
2023-05-15T03:11:50.364Z,12.67
2023-05-15T03:12:50.387Z,12.70
2023-05-15T03:13:50.340Z,12.67
2023-05-15T03:14:50.352Z,12.66
2023-05-15T03:15:50.319Z,12.59
2023-05-15T03:16:50.355Z,12.58
2023-05-15T03:17:50.344Z,12.56
2023-05-15T03:18:50.359Z,12.58
2023-05-15T03:19:50.270Z,12.56
2023-05-15T03:20:50.265Z,12.54
2023-05-15T03:21:50.248Z,12.52
2023-05-15T03:22:50.260Z,12.52
2023-05-15T03:23:50.209Z,12.49
2023-05-15T03:24:50.222Z,12.51
2023-05-15T03:25:50.201Z,12.51
2023-05-15T03:26:50.243Z,12.52
2023-05-15T03:27:50.171Z,12.54
2023-05-15T03:28:50.164Z,12.54
2023-05-15T03:29:50.169Z,12.52
2023-05-15T03:30:50.191Z,12.49
2023-05-15T03:31:50.189Z,12.44
2023-05-15T03:32:50.194Z,12.46
2023-05-15T03:33:50.093Z,12.43
2023-05-15T03:34:50.091Z,12.44
2023-05-15T03:35:50.062Z,12.46
2023-05-15T03:36:50.068Z,12.43
2023-05-15T03:37:50.044Z,12.40
2023-05-15T03:38:50.036Z,12.40
2023-05-15T03:39:50.011Z,12.40
2023-05-15T03:40:51.267Z,12.40
2023-05-15T03:41:50.030Z,12.40
2023-05-15T03:42:49.979Z,12.40
2023-05-15T03:43:49.956Z,12.40
2023-05-15T03:44:49.938Z,12.41
2023-05-15T03:45:49.935Z,12.44
2023-05-15T03:46:49.979Z,12.46
2023-05-15T03:47:49.915Z,12.46
2023-05-15T03:48:49.933Z,12.44
2023-05-15T03:49:49.873Z,12.43
2023-05-15T03:50:49.912Z,12.40
2023-05-15T03:51:49.891Z,12.41
2023-05-15T03:52:49.869Z,12.44
2023-05-15T03:53:49.836Z,12.43
2023-05-15T03:54:49.816Z,12.43
2023-05-15T03:55:49.804Z,12.41
2023-05-15T03:56:49.796Z,12.40
2023-05-15T03:57:49.783Z,12.38
2023-05-15T03:58:49.796Z,12.38
2023-05-15T03:59:49.746Z,12.43
2023-05-15T04:00:49.777Z,12.48
2023-05-15T04:02:03.549Z,12.49
2023-05-15T04:02:50.782Z,12.52
2023-05-15T04:03:49.745Z,12.52
2023-05-15T04:04:49.755Z,12.54
2023-05-15T04:05:49.693Z,12.54
2023-05-15T04:06:49.651Z,12.56
2023-05-15T04:07:49.672Z,12.59
2023-05-15T04:08:49.657Z,12.59
2023-05-15T04:09:49.684Z,12.59
2023-05-15T04:10:49.615Z,12.62
2023-05-15T04:11:49.619Z,12.62
2023-05-15T04:12:49.621Z,12.69
2023-05-15T04:13:49.596Z,12.71
2023-05-15T04:14:49.566Z,12.74
2023-05-15T04:15:49.589Z,12.77
2023-05-15T04:16:49.609Z,12.79
2023-05-15T04:17:49.601Z,12.80
2023-05-15T04:18:49.595Z,12.85
2023-05-15T04:19:49.505Z,12.88
2023-05-15T04:20:49.492Z,12.89
2023-05-15T04:21:49.546Z,12.95
2023-05-15T04:22:49.522Z,12.96
2023-05-15T04:23:49.461Z,12.98
2023-05-15T04:24:49.430Z,13.01
2023-05-15T04:25:49.432Z,13.03
2023-05-15T04:26:49.500Z,13.06
2023-05-15T04:27:49.497Z,13.09
2023-05-15T04:29:02.840Z,13.12
2023-05-15T04:29:50.375Z,13.17
2023-05-15T04:30:49.376Z,13.27
2023-05-15T04:31:49.441Z,13.32
2023-05-15T04:32:49.391Z,13.38
2023-05-15T04:33:50.714Z,13.48
2023-05-15T04:34:49.313Z,13.57
2023-05-15T04:35:49.314Z,13.68
2023-05-15T04:36:49.534Z,13.76
2023-05-15T04:37:49.284Z,13.83
2023-05-15T04:38:49.279Z,13.84
2023-05-15T04:39:49.255Z,13.88
2023-05-15T04:40:49.227Z,13.91
2023-05-15T04:41:49.205Z,13.99
2023-05-15T04:42:49.195Z,14.06
2023-05-15T04:43:49.196Z,14.09
2023-05-15T04:44:49.167Z,14.16
2023-05-15T04:45:49.206Z,14.21
2023-05-15T04:46:49.180Z,14.24
2023-05-15T04:47:49.163Z,14.27
2023-05-15T04:48:49.244Z,14.27
2023-05-15T04:49:49.124Z,14.24
2023-05-15T04:50:49.098Z,14.26
2023-05-15T04:51:49.092Z,14.27
2023-05-15T04:52:49.060Z,14.27
2023-05-15T04:53:49.073Z,14.24
2023-05-15T04:54:49.043Z,14.27
2023-05-15T04:55:49.056Z,14.24
2023-05-15T04:56:49.029Z,14.27
2023-05-15T04:57:49.027Z,14.26
2023-05-15T04:58:48.995Z,14.26
2023-05-15T04:59:49.008Z,14.24
2023-05-15T05:00:48.993Z,14.24
2023-05-15T05:01:48.997Z,14.24
2023-05-15T05:02:48.996Z,14.26
2023-05-15T05:03:48.968Z,14.30
2023-05-15T05:04:48.925Z,14.41
2023-05-15T05:05:48.922Z,14.46
2023-05-15T05:06:48.888Z,14.49
2023-05-15T05:07:48.892Z,14.44
2023-05-15T05:08:48.870Z,14.39
2023-05-15T05:09:48.874Z,14.41
2023-05-15T05:10:48.850Z,14.46
2023-05-15T05:11:48.836Z,14.56
2023-05-15T05:12:48.814Z,14.57
2023-05-15T05:13:48.810Z,14.63
2023-05-15T05:14:48.851Z,14.63
2023-05-15T05:15:48.914Z,14.57
2023-05-15T05:16:48.792Z,14.53
2023-05-15T05:17:48.867Z,14.59
2023-05-15T05:18:48.802Z,14.66
2023-05-15T05:19:48.845Z,14.66
2023-05-15T05:20:48.738Z,14.63
2023-05-15T05:21:48.725Z,14.63
2023-05-15T05:22:48.704Z,14.60
2023-05-15T05:23:48.696Z,14.57
2023-05-15T05:24:48.696Z,14.56
2023-05-15T05:25:48.678Z,14.53
2023-05-15T05:26:48.647Z,14.49
2023-05-15T05:27:48.646Z,14.52
2023-05-15T05:28:48.618Z,14.56
2023-05-15T05:29:48.612Z,14.60
2023-05-15T05:30:48.602Z,14.67
2023-05-15T05:31:48.623Z,14.75
2023-05-15T05:32:48.616Z,14.79
2023-05-15T05:33:48.571Z,14.83
2023-05-15T05:34:48.537Z,14.90
2023-05-15T05:35:48.553Z,14.93
2023-05-15T05:36:48.513Z,14.93
2023-05-15T05:37:48.508Z,14.97
2023-05-15T05:38:48.506Z,14.98
2023-05-15T05:39:48.491Z,15.01
2023-05-15T05:40:55.484Z,15.03
2023-05-15T05:41:48.457Z,15.07
2023-05-15T05:42:48.441Z,15.11
2023-05-15T05:43:48.458Z,15.16
2023-05-15T05:44:48.417Z,15.20
2023-05-15T05:45:48.625Z,15.23
2023-05-15T05:46:48.425Z,15.28
2023-05-15T05:47:48.474Z,15.28
2023-05-15T05:48:48.436Z,15.31
2023-05-15T05:49:48.449Z,15.38
2023-05-15T05:50:48.342Z,15.37
2023-05-15T05:51:48.345Z,15.34
2023-05-15T05:52:48.314Z,15.37
2023-05-15T05:53:48.317Z,15.41
2023-05-15T05:54:48.325Z,15.46
2023-05-15T05:55:48.278Z,15.49
2023-05-15T05:56:48.260Z,15.52
2023-05-15T05:57:48.276Z,15.55
2023-05-15T05:58:48.261Z,15.53
2023-05-15T05:59:48.266Z,15.53
2023-05-15T06:00:48.237Z,15.49
2023-05-15T06:01:48.241Z,15.49
2023-05-15T06:02:48.328Z,15.49
2023-05-15T06:03:48.295Z,15.51
2023-05-15T06:04:48.153Z,15.52
2023-05-15T06:05:48.170Z,15.52
2023-05-15T06:06:48.130Z,15.58
2023-05-15T06:07:48.167Z,15.64
2023-05-15T06:08:48.120Z,15.67
2023-05-15T06:09:48.134Z,15.71
2023-05-15T06:10:48.150Z,15.76
2023-05-15T06:11:48.071Z,15.81
2023-05-15T06:12:48.076Z,15.85
2023-05-15T06:13:48.039Z,15.85
2023-05-15T06:14:48.029Z,15.86
2023-05-15T06:15:48.021Z,15.91
2023-05-15T06:16:48.060Z,15.91
2023-05-15T06:17:48.189Z,15.91
2023-05-15T06:18:48.024Z,15.95
2023-05-15T06:19:48.005Z,15.95
2023-05-15T06:20:47.946Z,15.96
2023-05-15T06:21:47.952Z,15.95
2023-05-15T06:22:47.943Z,15.98
2023-05-15T06:23:47.920Z,16.01
2023-05-15T06:24:47.912Z,15.99
2023-05-15T06:25:47.909Z,15.99
2023-05-15T06:26:48.555Z,16.01
2023-05-15T06:27:47.894Z,16.03
2023-05-15T06:28:47.886Z,16.03
2023-05-15T06:29:47.853Z,16.04
2023-05-15T06:30:47.905Z,16.08
2023-05-15T06:31:47.876Z,16.11
2023-05-15T06:32:47.834Z,16.14
2023-05-15T06:33:47.782Z,16.17
2023-05-15T06:34:47.786Z,16.18
2023-05-15T06:35:47.807Z,16.22
2023-05-15T06:36:48.033Z,16.25
2023-05-15T06:37:47.773Z,16.27
2023-05-15T06:38:47.774Z,16.29
2023-05-15T06:39:47.717Z,16.33
2023-05-15T06:40:47.713Z,16.42
2023-05-15T06:41:47.830Z,16.50
2023-05-15T06:42:47.714Z,16.51
2023-05-15T06:43:47.691Z,16.54
2023-05-15T06:44:47.666Z,16.55
2023-05-15T06:45:47.687Z,16.59
2023-05-15T06:46:47.642Z,16.60
2023-05-15T06:47:47.617Z,16.59
2023-05-15T06:48:47.597Z,16.63
2023-05-15T06:49:47.648Z,16.62
2023-05-15T06:50:47.685Z,16.63
2023-05-15T06:51:47.594Z,16.67
2023-05-15T06:52:47.556Z,16.70
2023-05-15T06:53:48.547Z,16.72
2023-05-15T06:54:47.526Z,16.77
2023-05-15T06:55:47.514Z,16.78
2023-05-15T06:56:47.734Z,16.80
2023-05-15T06:57:47.518Z,16.84
2023-05-15T06:58:47.530Z,16.88
2023-05-15T06:59:47.470Z,16.91
2023-05-15T07:00:47.441Z,16.91
2023-05-15T07:01:47.507Z,16.92
2023-05-15T07:02:47.452Z,16.92
2023-05-15T07:03:47.428Z,16.92
2023-05-15T07:04:47.469Z,16.91
2023-05-15T07:05:47.445Z,16.91
2023-05-15T07:06:47.648Z,16.90
2023-05-15T07:07:47.349Z,16.92
2023-05-15T07:08:47.348Z,16.92
2023-05-15T07:09:47.333Z,16.96
2023-05-15T07:10:47.420Z,17.00
2023-05-15T07:11:47.322Z,17.02
2023-05-15T07:12:47.344Z,17.06
2023-05-15T07:13:47.279Z,17.10
2023-05-15T07:14:47.256Z,17.10
2023-05-15T07:15:47.307Z,17.14
2023-05-15T07:16:47.285Z,17.21
2023-05-15T07:17:47.318Z,17.28
2023-05-15T07:18:47.319Z,17.36
2023-05-15T07:19:47.219Z,17.47
2023-05-15T07:20:47.202Z,17.58
2023-05-15T07:21:47.195Z,17.68
2023-05-15T07:22:55.830Z,17.73
2023-05-15T07:23:48.183Z,17.70
2023-05-15T07:24:47.137Z,17.71
2023-05-15T07:25:47.139Z,17.71
2023-05-15T07:26:58.297Z,17.76
2023-05-15T07:27:48.108Z,17.86
2023-05-15T07:28:47.071Z,18.01
2023-05-15T07:29:47.125Z,18.19
2023-05-15T07:30:47.090Z,18.35
2023-05-15T07:31:47.074Z,18.47
2023-05-15T07:32:47.630Z,18.54
2023-05-15T07:33:47.015Z,18.60
2023-05-15T07:34:47.004Z,18.65
2023-05-15T07:35:46.997Z,18.71
2023-05-15T07:36:46.989Z,18.74
2023-05-15T07:37:47.018Z,18.78
2023-05-15T07:38:46.947Z,18.68
2023-05-15T07:39:46.957Z,18.69
2023-05-15T07:40:46.921Z,18.76
2023-05-15T07:41:46.932Z,18.76
2023-05-15T07:42:46.931Z,18.72
2023-05-15T07:43:46.958Z,18.69
2023-05-15T07:44:49.358Z,18.60
2023-05-15T07:45:47.505Z,18.57
2023-05-15T07:46:46.873Z,18.53
2023-05-15T07:47:47.119Z,18.51
2023-05-15T07:48:46.813Z,18.53
2023-05-15T07:49:46.805Z,18.59
2023-05-15T07:50:46.805Z,18.57
2023-05-15T07:51:46.831Z,18.60
2023-05-15T07:52:46.800Z,18.64
2023-05-15T07:53:47.428Z,18.64
2023-05-15T07:54:46.757Z,18.66
2023-05-15T07:55:46.759Z,18.68
2023-05-15T07:56:47.100Z,18.68
2023-05-15T07:57:53.418Z,18.66
2023-05-15T07:58:47.735Z,18.64
2023-05-15T07:59:46.805Z,18.60
2023-05-15T08:00:47.078Z,18.56
2023-05-15T08:01:47.485Z,18.53
2023-05-15T08:02:47.654Z,18.54
2023-05-15T08:03:46.738Z,18.56
2023-05-15T08:04:46.636Z,18.54
2023-05-15T08:05:46.662Z,18.54
2023-05-15T08:06:46.646Z,18.53
2023-05-15T08:07:46.645Z,18.49
2023-05-15T08:08:46.646Z,18.44
2023-05-15T08:09:46.633Z,18.49
2023-05-15T08:10:46.724Z,18.51
2023-05-15T08:11:46.778Z,18.57
2023-05-15T08:12:47.494Z,18.66
2023-05-15T08:13:46.633Z,18.66
2023-05-15T08:14:46.528Z,18.66
2023-05-15T08:15:46.931Z,18.72
2023-05-15T08:16:47.114Z,18.74
2023-05-15T08:17:46.481Z,18.76
2023-05-15T08:18:46.600Z,18.82
2023-05-15T08:19:47.125Z,18.90
2023-05-15T08:20:47.043Z,18.91
2023-05-15T08:21:46.408Z,18.94
2023-05-15T08:22:46.418Z,18.94
2023-05-15T08:23:46.578Z,18.90
2023-05-15T08:24:47.185Z,18.89
2023-05-15T08:25:46.330Z,18.94
2023-05-15T08:26:47.251Z,19.05
2023-05-15T08:27:46.627Z,19.01
2023-05-15T08:28:47.312Z,18.97
2023-05-15T08:29:46.466Z,19.07
2023-05-15T08:30:46.292Z,19.10
2023-05-15T08:31:46.339Z,19.13
2023-05-15T08:32:46.413Z,19.13
2023-05-15T08:33:46.349Z,19.10
2023-05-15T08:34:46.281Z,19.20
2023-05-15T08:35:46.315Z,19.20
2023-05-15T08:36:46.310Z,19.25
2023-05-15T08:37:47.415Z,19.38
2023-05-15T08:38:46.345Z,19.45
2023-05-15T08:39:46.357Z,19.50
2023-05-15T08:40:46.425Z,19.39
2023-05-15T08:41:46.390Z,19.25
2023-05-15T08:42:46.335Z,19.16
2023-05-15T08:43:46.440Z,19.12
2023-05-15T08:44:46.464Z,19.13
2023-05-15T08:45:46.166Z,19.07
2023-05-15T08:46:46.364Z,19.06
2023-05-15T08:47:46.145Z,19.01
2023-05-15T08:48:46.104Z,18.96
2023-05-15T08:49:46.302Z,18.87
2023-05-15T08:50:46.056Z,18.82
2023-05-15T08:51:46.116Z,18.84
2023-05-15T08:52:46.014Z,18.87
2023-05-15T08:53:46.006Z,18.93
2023-05-15T08:54:48.129Z,18.91
2023-05-15T08:55:46.004Z,18.96
2023-05-15T08:56:46.019Z,18.94
2023-05-15T08:57:46.070Z,18.94
2023-05-15T08:58:45.954Z,18.91
2023-05-15T08:59:45.957Z,18.84
2023-05-15T09:00:45.927Z,18.69
2023-05-15T09:01:45.904Z,18.64
2023-05-15T09:02:45.990Z,18.65
2023-05-15T09:03:45.900Z,18.66
2023-05-15T09:04:45.842Z,18.64
2023-05-15T09:05:45.823Z,18.66
2023-05-15T09:06:45.832Z,18.62
2023-05-15T09:07:45.806Z,18.64
2023-05-15T09:08:45.840Z,18.66
2023-05-15T09:09:45.760Z,18.71
2023-05-15T09:10:45.768Z,18.72
2023-05-15T09:11:45.745Z,18.75
2023-05-15T09:12:45.753Z,18.76
2023-05-15T09:13:45.798Z,18.83
2023-05-15T09:14:45.706Z,18.79
2023-05-15T09:15:45.684Z,18.79
2023-05-15T09:16:45.755Z,18.78
2023-05-15T09:17:45.745Z,18.78
2023-05-15T09:18:45.711Z,18.74
2023-05-15T09:19:45.655Z,18.76
2023-05-15T09:20:45.637Z,18.84
2023-05-15T09:21:45.621Z,18.89
2023-05-15T09:22:45.642Z,18.89
2023-05-15T09:23:45.597Z,18.90
2023-05-15T09:24:45.611Z,18.93
2023-05-15T09:25:45.555Z,18.87
2023-05-15T09:26:45.576Z,18.86
2023-05-15T09:27:45.637Z,18.89
2023-05-15T09:28:45.548Z,18.91
2023-05-15T09:29:45.536Z,18.93
2023-05-15T09:30:45.520Z,18.94
2023-05-15T09:31:45.523Z,18.96
2023-05-15T09:32:45.576Z,19.01
2023-05-15T09:33:45.508Z,19.01
2023-05-15T09:34:45.470Z,19.05
2023-05-15T09:35:45.438Z,19.10
2023-05-15T09:36:45.461Z,19.21
2023-05-15T09:37:45.412Z,19.30
2023-05-15T09:38:45.416Z,19.27
2023-05-15T09:39:45.425Z,19.10
2023-05-15T09:40:45.393Z,19.09
2023-05-15T09:41:45.357Z,19.13
2023-05-15T09:42:46.263Z,19.15
2023-05-15T09:43:45.318Z,19.24
2023-05-15T09:44:45.318Z,19.31
2023-05-15T09:45:45.304Z,19.34
2023-05-15T09:46:45.468Z,19.28
2023-05-15T09:47:45.355Z,19.20
2023-05-15T09:48:45.282Z,19.27
2023-05-15T09:49:45.270Z,19.32
2023-05-15T09:50:45.298Z,19.34
2023-05-15T09:51:45.253Z,19.30
2023-05-15T09:52:45.256Z,19.25
2023-05-15T09:53:45.189Z,19.28
2023-05-15T09:55:45.216Z,19.27
2023-05-15T09:56:45.192Z,19.35
2023-05-15T09:57:45.154Z,19.45
2023-05-15T09:58:45.143Z,19.43
2023-05-15T09:59:45.133Z,19.46
2023-05-15T10:00:48.113Z,19.57
2023-05-15T10:01:45.119Z,19.65
2023-05-15T10:02:45.186Z,19.70
2023-05-15T10:03:45.106Z,19.68
2023-05-15T10:04:45.092Z,19.71
2023-05-15T10:05:45.199Z,19.76
2023-05-15T10:06:45.051Z,19.80
2023-05-15T10:07:45.069Z,19.80
2023-05-15T10:08:45.037Z,19.86
2023-05-15T10:09:45.035Z,19.94
2023-05-15T10:10:45.069Z,20.05
2023-05-15T10:11:45.075Z,20.12
2023-05-15T10:12:46.252Z,20.12
2023-05-15T10:13:44.975Z,20.22
2023-05-15T10:14:44.979Z,20.20
2023-05-15T10:15:45.039Z,20.10
2023-05-15T10:16:44.964Z,20.10
2023-05-15T10:17:44.999Z,20.12
2023-05-15T10:18:45.122Z,20.16
2023-05-15T10:19:57.191Z,20.17
2023-05-15T10:20:45.935Z,20.15
2023-05-15T10:21:44.883Z,20.17
2023-05-15T10:22:44.879Z,20.26
2023-05-15T10:23:45.099Z,20.48
2023-05-15T10:24:44.822Z,20.57
2023-05-15T10:25:44.792Z,20.66
2023-05-15T10:26:44.832Z,20.57
2023-05-15T10:27:45.084Z,20.41
2023-05-15T10:28:45.003Z,20.31
2023-05-15T10:29:44.766Z,20.31
2023-05-15T10:30:44.845Z,20.27
2023-05-15T10:31:44.802Z,20.30
2023-05-15T10:32:44.779Z,20.27
2023-05-15T10:33:44.707Z,20.25
2023-05-15T10:34:44.690Z,20.22
2023-05-15T10:35:45.353Z,20.12
2023-05-15T10:36:44.672Z,20.13
2023-05-15T10:37:44.697Z,20.19
2023-05-15T10:38:44.643Z,20.16
2023-05-15T10:39:44.642Z,20.08
2023-05-15T10:40:44.622Z,19.98
2023-05-15T10:41:44.587Z,19.95
2023-05-15T10:42:44.602Z,19.98
2023-05-15T10:43:44.584Z,19.97
2023-05-15T10:44:44.686Z,19.94
2023-05-15T10:45:44.637Z,19.90
2023-05-15T10:46:44.595Z,19.85
2023-05-15T10:47:44.559Z,19.75
2023-05-15T10:48:44.520Z,19.70
2023-05-15T10:49:44.563Z,19.64
2023-05-15T10:50:44.516Z,19.62
2023-05-15T10:51:44.481Z,19.61
2023-05-15T10:52:44.532Z,19.57
2023-05-15T10:53:44.458Z,19.55
2023-05-15T10:54:44.507Z,19.53
2023-05-15T10:55:44.633Z,19.47
2023-05-15T10:56:44.495Z,19.52
2023-05-15T10:57:44.632Z,19.53
2023-05-15T10:58:44.398Z,19.49
2023-05-15T10:59:44.391Z,19.45
2023-05-15T11:00:44.409Z,19.39
2023-05-15T11:01:44.414Z,19.31
2023-05-15T11:02:44.391Z,19.28
2023-05-15T11:03:49.464Z,19.31
2023-05-15T11:04:45.456Z,19.31
2023-05-15T11:05:44.275Z,19.34
2023-05-15T11:06:44.374Z,19.38
2023-05-15T11:07:44.291Z,19.38
2023-05-15T11:08:45.224Z,19.38
2023-05-15T11:09:44.255Z,19.38
2023-05-15T11:10:44.253Z,19.42
2023-05-15T11:11:44.242Z,19.45
2023-05-15T11:12:44.214Z,19.45
2023-05-15T11:13:44.200Z,19.52
2023-05-15T11:14:44.205Z,19.60
2023-05-15T11:15:44.164Z,19.68
2023-05-15T11:16:44.210Z,19.70
2023-05-15T11:17:44.217Z,19.64
2023-05-15T11:18:44.191Z,19.64
2023-05-15T11:19:44.123Z,19.60
2023-05-15T11:20:44.120Z,19.60
2023-05-15T11:21:44.632Z,19.64
2023-05-15T11:22:44.123Z,19.70
2023-05-15T11:23:44.099Z,19.79
2023-05-15T11:24:44.078Z,19.94
2023-05-15T11:25:44.043Z,20.00
2023-05-15T11:26:44.043Z,20.05
2023-05-15T11:27:44.040Z,20.07
2023-05-15T11:28:44.017Z,20.15
2023-05-15T11:29:43.977Z,20.15
2023-05-15T11:30:44.079Z,20.04
2023-05-15T11:31:43.992Z,19.86
2023-05-15T11:32:44.047Z,19.83
2023-05-15T11:33:43.961Z,19.83
2023-05-15T11:34:43.923Z,19.86
2023-05-15T11:35:43.909Z,19.92
2023-05-15T11:36:43.926Z,20.05
2023-05-15T11:37:43.901Z,20.19
2023-05-15T11:38:43.887Z,20.30
2023-05-15T11:39:44.518Z,20.42
2023-05-15T11:40:43.873Z,20.46
2023-05-15T11:41:43.852Z,20.42
2023-05-15T11:42:43.856Z,20.38
2023-05-15T11:43:43.789Z,20.37
2023-05-15T11:44:43.824Z,20.34
2023-05-15T11:45:43.766Z,20.41
2023-05-15T11:46:43.872Z,20.42
2023-05-15T11:47:43.850Z,20.38
2023-05-15T11:48:43.775Z,20.41
2023-05-15T11:49:44.011Z,20.44
2023-05-15T11:50:43.721Z,20.48
2023-05-15T11:51:43.704Z,20.34
2023-05-15T11:52:43.735Z,20.15
2023-05-15T11:53:43.767Z,20.08
2023-05-15T11:54:43.660Z,20.12
2023-05-15T11:55:43.655Z,20.27
2023-05-15T11:56:43.661Z,20.48
2023-05-15T11:57:43.683Z,20.51
2023-05-15T11:58:43.624Z,20.53
2023-05-15T11:59:43.631Z,20.56
2023-05-15T12:00:43.610Z,20.66
2023-05-15T12:01:43.574Z,20.85
2023-05-15T12:02:43.647Z,20.88
2023-05-15T12:03:43.710Z,21.01
2023-05-15T12:04:43.619Z,21.00
2023-05-15T12:05:56.926Z,20.96
2023-05-15T12:06:44.568Z,21.13
2023-05-15T12:07:43.510Z,21.26
2023-05-15T12:08:43.526Z,21.38
2023-05-15T12:09:43.502Z,21.42
2023-05-15T12:10:43.484Z,21.34
2023-05-15T12:11:43.438Z,21.24
2023-05-15T12:12:43.457Z,21.15
2023-05-15T12:13:43.438Z,21.16
2023-05-15T12:14:43.472Z,21.22
2023-05-15T12:15:43.416Z,21.22
2023-05-15T12:16:43.443Z,21.26
2023-05-15T12:17:43.435Z,21.28
2023-05-15T12:18:43.408Z,21.22
2023-05-15T12:19:43.377Z,21.15
2023-05-15T12:20:43.388Z,21.05
2023-05-15T12:21:43.320Z,21.00
2023-05-15T12:22:43.365Z,20.91
2023-05-15T12:23:44.375Z,20.90
2023-05-15T12:24:43.318Z,20.91
2023-05-15T12:25:43.414Z,20.90
2023-05-15T12:26:43.276Z,20.97
2023-05-15T12:27:43.322Z,21.09
2023-05-15T12:28:43.240Z,21.15
2023-05-15T12:29:43.255Z,21.13
2023-05-15T12:30:43.256Z,21.19
2023-05-15T12:31:43.299Z,21.26
2023-05-15T12:32:43.316Z,21.37
2023-05-15T12:33:43.194Z,21.43
2023-05-15T12:34:43.209Z,21.28
2023-05-15T12:35:43.164Z,21.22
2023-05-15T12:36:43.152Z,21.26
2023-05-15T12:37:43.170Z,21.26
2023-05-15T12:38:43.204Z,21.30
2023-05-15T12:39:43.112Z,21.37
2023-05-15T12:40:43.065Z,21.49
2023-05-15T12:41:43.088Z,21.53
2023-05-15T12:42:43.090Z,21.64
2023-05-15T12:43:43.056Z,21.71
2023-05-15T12:44:43.990Z,21.75
2023-05-15T12:45:43.065Z,21.77
2023-05-15T12:46:43.003Z,21.81
2023-05-15T12:47:43.441Z,21.79
2023-05-15T12:48:43.021Z,21.75
2023-05-15T12:49:42.973Z,21.74
2023-05-15T12:50:42.936Z,21.71
2023-05-15T12:51:42.927Z,21.67
2023-05-15T12:52:42.996Z,21.59
2023-05-15T12:53:42.915Z,21.49